Time;durP1;ratioP1;P1;durP2;ratioP2;P2;SDS_P1;SDS_P2;PMS_P1;PMS_P2;Temp;Humidity;BMP_temperature;BMP_pressure;BME280_temperature;BME280_humidity;BME280_pressure;Samples;Min_cycle;Max_cycle;Signal;HPM_P1;HPM_P2
2021/10/10 00:12:22;;;;;;;96.43;40.57;;;;;;;3.95;76.97;102234.09;712963;1203;114574;-73
2021/10/10 00:27:24;;;;;;;109.77;42.50;;;;;;;3.94;77.54;102236.74;713294;1205;114524;-75
2021/10/10 00:42:26;;;;;;;106.30;41.60;;;;;;;3.76;76.89;102228.59;713414;1206;114645;-74
2021/10/10 00:57:30;;;;;;;53.00;25.23;;;;;;;3.72;77.04;102219.19;713029;1202;114818;-74
2021/10/10 01:12:34;;;;;;;74.43;31.70;;;;;;;3.46;78.09;102207.78;713146;1203;114444;-74
2021/10/10 01:27:37;;;;;;;70.15;32.20;;;;;;;3.41;78.24;102190.64;713543;1203;113975;-74
2021/10/10 01:42:39;;;;;;;57.63;26.75;;;;;;;3.29;77.73;102191.83;712520;1202;114408;-73
2021/10/10 01:57:42;;;;;;;74.98;29.38;;;;;;;3.13;78.12;102181.86;712724;1203;115400;-73
2021/10/10 02:12:45;;;;;;;79.30;33.00;;;;;;;3.10;78.36;102175.89;712487;1202;114820;-73
2021/10/10 02:27:47;;;;;;;93.70;37.30;;;;;;;2.92;78.64;102166.88;712401;1179;114085;-74
2021/10/10 02:42:49;;;;;;;110.35;40.85;;;;;;;2.83;79.34;102157.58;712539;1202;114877;-74
2021/10/10 02:57:51;;;;;;;93.47;37.33;;;;;;;2.52;79.73;102149.72;712368;1203;114386;-73
2021/10/10 03:12:54;;;;;;;96.60;37.13;;;;;;;2.53;80.04;102135.88;712419;1203;114176;-73
2021/10/10 03:27:56;;;;;;;77.23;32.20;;;;;;;2.57;80.25;102127.98;712679;1202;113487;-73
2021/10/10 03:42:58;;;;;;;71.18;30.58;;;;;;;2.39;79.75;102131.02;712451;1202;114380;-73
2021/10/10 03:58:01;;;;;;;51.53;24.53;;;;;;;2.24;80.86;102112.38;712476;1180;114007;-73
2021/10/10 04:13:06;;;;;;;47.73;22.75;;;;;;;2.14;81.35;102106.57;712422;1202;115628;-72
2021/10/10 04:28:09;;;;;;;52.23;24.37;;;;;;;2.06;81.83;102097.27;712440;1188;113990;-73
2021/10/10 04:43:12;;;;;;;57.35;26.85;;;;;;;2.03;82.27;102102.53;712869;1206;114004;-74
2021/10/10 04:58:14;;;;;;;69.90;27.50;;;;;;;1.80;82.38;102104.75;712733;1203;115273;-74
2021/10/10 05:13:16;;;;;;;67.98;28.55;;;;;;;1.99;83.11;102107.79;712458;1203;114716;-75
2021/10/10 05:28:19;;;;;;;117.90;41.30;;;;;;;2.06;83.20;102102.45;712906;1202;115726;-72
2021/10/10 05:43:21;;;;;;;73.57;32.77;;;;;;;2.11;83.32;102101.48;712703;1205;114606;-75
2021/10/10 05:58:26;;;;;;;68.10;33.50;;;;;;;2.36;84.02;102103.45;713076;1202;114959;-75
2021/10/10 06:13:28;;;;;;;100.23;43.78;;;;;;;3.00;84.62;102092.31;713788;1202;115000;-77
2021/10/10 06:28:30;;;;;;;171.95;66.65;;;;;;;4.54;85.18;102109.30;715419;1202;114464;-74
2021/10/10 06:43:33;;;;;;;193.83;90.47;;;;;;;5.98;83.97;102107.59;713349;1203;114167;-73
2021/10/10 06:58:35;;;;;;;194.20;89.90;;;;;;;7.36;81.98;102105.20;712947;1202;115094;-74
2021/10/10 07:13:37;;;;;;;222.05;108.65;;;;;;;8.71;79.99;102102.27;713058;1202;115154;-71
2021/10/10 07:28:39;;;;;;;264.70;114.60;;;;;;;10.13;77.85;102107.68;713021;1205;115598;-72
2021/10/10 07:43:42;;;;;;;101.80;56.18;;;;;;;11.28;77.15;102106.20;713025;1202;114353;-72
2021/10/10 07:58:46;;;;;;;67.33;37.15;;;;;;;12.64;75.46;102100.07;713096;1204;115025;-74
2021/10/10 08:13:48;;;;;;;40.95;19.45;;;;;;;13.59;69.58;102102.30;713037;1203;115765;-74
2021/10/10 08:28:50;;;;;;;64.80;25.30;;;;;;;14.49;66.26;102086.00;713466;1202;115312;-77
2021/10/10 08:43:54;;;;;;;19.00;9.23;;;;;;;15.12;61.89;102077.64;713015;1202;115601;-77
2021/10/10 08:58:58;;;;;;;30.43;15.63;;;;;;;15.79;59.42;102068.71;713224;1202;114754;-77
2021/10/10 09:14:02;;;;;;;28.30;14.60;;;;;;;16.50;57.48;102056.70;713164;1178;115125;-76
2021/10/10 09:29:35;;;;;;;19.40;12.15;;;;;;;17.05;56.40;102039.66;713623;1202;114170;-76
2021/10/10 09:44:53;;;;;;;15.60;9.90;;;;;;;17.19;53.92;102031.32;713334;1202;114619;-79
2021/10/10 09:59:56;;;;;;;27.23;14.35;;;;;;;17.79;52.53;102020.63;712522;1203;113765;-81
2021/10/10 10:15:02;;;;;;;42.13;15.77;;;;;;;17.95;50.96;102011.30;712386;1202;114047;-77
2021/10/10 10:30:06;;;;;;;15.45;10.03;;;;;;;18.12;49.41;101996.45;712556;1203;114343;-80
2021/10/10 10:45:25;;;;;;;22.13;8.83;;;;;;;18.19;48.70;101996.71;712683;1203;115513;-84
2021/10/10 11:00:31;;;;;;;20.65;10.50;;;;;;;18.53;47.65;101981.07;712979;1205;115771;-76
2021/10/10 11:15:57;;;;;;;13.05;6.90;;;;;;;19.22;47.85;101968.23;722146;1206;114255;-77
2021/10/10 11:31:33;;;;;;;11.13;6.57;;;;;;;19.28;47.17;101942.84;713068;1203;115041;-84
2021/10/10 11:46:59;;;;;;;9.95;5.40;;;;;;;19.18;45.62;101924.31;712066;1203;114423;-82
2021/10/10 12:02:01;;;;;;;17.57;9.53;;;;;;;19.93;44.84;101902.60;712406;1202;114416;-82
2021/10/10 12:17:04;;;;;;;11.83;7.13;;;;;;;20.05;44.25;101878.38;712338;1202;114977;-82
2021/10/10 12:32:23;;;;;;;10.58;5.00;;;;;;;20.26;43.35;101869.97;712446;1203;115280;-82
2021/10/10 12:47:28;;;;;;;12.43;7.28;;;;;;;20.98;43.20;101848.13;712426;1202;114340;-84
2021/10/10 13:02:30;;;;;;;8.40;5.60;;;;;;;21.26;42.20;101845.13;712319;1188;115053;-83
2021/10/10 13:17:34;;;;;;;20.65;9.68;;;;;;;24.23;41.24;101819.01;712461;1205;114516;-83
2021/10/10 13:32:36;;;;;;;17.65;9.75;;;;;;;30.20;37.03;101794.95;712634;1205;115175;-83
2021/10/10 13:47:38;;;;;;;24.25;11.95;;;;;;;32.89;35.13;101783.18;712774;1203;115442;-83
2021/10/10 14:02:41;;;;;;;10.53;7.50;;;;;;;34.03;34.22;101765.54;713137;1202;114894;-77
2021/10/10 14:17:44;;;;;;;31.20;19.55;;;;;;;33.39;33.81;101756.12;713787;1180;114912;-77
2021/10/10 14:32:49;;;;;;;123.37;85.63;;;;;;;33.21;32.86;101740.94;712929;1202;115730;-77
2021/10/10 14:48:13;;;;;;;12.93;10.97;;;;;;;29.45;33.52;101715.84;713089;1172;115085;-76
2021/10/10 15:03:16;;;;;;;16.55;10.35;;;;;;;23.48;37.73;101703.92;713727;1205;113840;-85
2021/10/10 15:18:21;;;;;;;73.50;38.10;;;;;;;24.06;39.33;101693.28;712820;1209;114648;-84
2021/10/10 15:33:27;;;;;;;81.05;41.65;;;;;;;24.94;38.16;101684.09;712544;1203;115308;-83
2021/10/10 15:48:29;;;;;;;30.70;18.23;;;;;;;20.63;40.25;101674.14;712694;1203;115716;-82
2021/10/10 16:03:32;;;;;;;169.47;71.40;;;;;;;15.85;44.81;101675.80;712637;1203;114240;-82
2021/10/10 16:18:34;;;;;;;111.48;50.83;;;;;;;13.95;47.75;101678.48;712713;1203;114974;-84
2021/10/10 16:33:42;;;;;;;318.43;143.73;;;;;;;12.89;49.88;101674.36;712517;1203;115011;-84
2021/10/10 16:48:44;;;;;;;114.80;49.00;;;;;;;12.03;52.26;101669.23;712718;1208;115226;-82
2021/10/10 17:03:47;;;;;;;157.00;68.70;;;;;;;11.41;54.00;101670.92;712507;1205;115875;-75
2021/10/10 17:18:49;;;;;;;144.10;64.10;;;;;;;10.55;55.64;101656.59;712671;1192;114623;-74
2021/10/10 17:33:52;;;;;;;71.80;35.70;;;;;;;10.11;58.09;101655.09;712993;1203;115318;-74
2021/10/10 17:48:54;;;;;;;63.60;30.30;;;;;;;9.40;59.30;101652.48;712560;1203;114866;-73
2021/10/10 18:19:15;;;;;;;347.47;137.37;;;;;;;8.56;61.96;101627.79;712830;1180;114607;-74
2021/10/10 18:34:18;;;;;;;249.65;102.25;;;;;;;8.28;62.28;101616.28;712672;1180;114454;-74
2021/10/10 18:49:21;;;;;;;288.00;112.23;;;;;;;7.81;63.96;101623.27;712685;1203;115773;-74
2021/10/10 19:04:24;;;;;;;376.00;138.30;;;;;;;7.40;64.97;101626.33;712801;1181;114750;-74
2021/10/10 19:19:27;;;;;;;391.60;144.20;;;;;;;7.04;66.47;101616.08;712883;1203;116185;-73
2021/10/10 19:34:30;;;;;;;320.65;121.20;;;;;;;6.66;66.53;101602.32;716098;1199;115145;-73
2021/10/10 19:49:35;;;;;;;275.78;108.33;;;;;;;6.47;67.71;101586.73;712966;1203;115112;-73
2021/10/10 20:04:37;;;;;;;327.50;126.40;;;;;;;6.07;68.20;101572.22;712923;1203;115873;-74
2021/10/10 20:19:40;;;;;;;330.43;126.18;;;;;;;5.72;69.54;101570.36;712995;1203;115416;-73
2021/10/10 20:34:42;;;;;;;292.27;116.30;;;;;;;5.57;70.42;101569.33;713011;1206;114605;-73
2021/10/10 20:49:45;;;;;;;307.83;121.00;;;;;;;5.40;70.78;101551.89;713166;1203;114767;-73
2021/10/10 21:05:04;;;;;;;310.15;122.60;;;;;;;4.99;70.54;101531.20;712693;1206;115969;-73
2021/10/10 21:20:11;;;;;;;243.65;99.90;;;;;;;4.67;71.98;101512.64;712955;1180;115390;-75
2021/10/10 21:35:14;;;;;;;243.73;98.37;;;;;;;4.53;72.74;101504.60;713128;1203;115545;-74
2021/10/10 21:50:17;;;;;;;260.07;101.73;;;;;;;4.41;72.10;101487.78;712626;1203;114559;-73
2021/10/10 22:05:19;;;;;;;270.15;107.35;;;;;;;4.35;72.93;101480.27;712495;1205;114348;-74
2021/10/10 22:20:24;;;;;;;247.50;94.50;;;;;;;4.18;73.56;101468.00;712590;1205;115475;-74
2021/10/10 22:35:28;;;;;;;214.83;84.93;;;;;;;3.88;73.73;101452.78;712723;1205;115436;-74
2021/10/10 22:50:30;;;;;;;187.50;75.37;;;;;;;3.74;73.17;101446.41;712691;1205;114621;-74
2021/10/10 23:05:32;;;;;;;194.03;77.17;;;;;;;3.54;74.03;101425.60;712443;1203;115332;-73
2021/10/10 23:20:38;;;;;;;202.83;75.73;;;;;;;3.33;74.06;101417.79;712624;1181;114280;-73
2021/10/10 23:35:40;;;;;;;199.73;72.97;;;;;;;3.18;74.97;101401.09;712720;1203;115649;-73
2021/10/10 23:50:42;;;;;;;191.33;72.75;;;;;;;2.88;75.34;101387.54;712479;1203;114714;-73
